Time;durP1;ratioP1;P1;durP2;ratioP2;P2;SDS_P1;SDS_P2;PMS_P1;PMS_P2;Temp;Humidity;BMP_temperature;BMP_pressure;BME280_temperature;BME280_humidity;BME280_pressure;Samples;Min_cycle;Max_cycle;Signal;HPM_P1;HPM_P2
2023/01/17 14:05:56;;;;;;;7.93;5.07;;;6.50;69.20;;;;;;5070375;28;20392;-77
2023/01/17 14:08:21;;;;;;;7.30;4.88;;;6.40;69.30;;;;;;5070143;28;20032;-78
2023/01/17 14:10:50;;;;;;;7.38;4.80;;;6.50;70.20;;;;;;5070932;28;20409;-78
2023/01/17 14:13:37;;;;;;;6.72;4.85;;;6.50;70.80;;;;;;5051049;28;20366;-76
2023/01/17 14:16:23;;;;;;;7.95;5.15;;;6.60;71.10;;;;;;5051426;28;20048;-77
2023/01/17 14:18:49;;;;;;;6.20;4.63;;;6.70;71.40;;;;;;5050864;28;20053;-77
2023/01/17 14:21:26;;;;;;;6.05;4.95;;;6.80;71.60;;;;;;5050927;28;20067;-77
2023/01/17 14:24:14;;;;;;;8.57;4.70;;;6.90;71.60;;;;;;5050211;28;20036;-76
2023/01/17 14:26:58;;;;;;;7.82;4.70;;;7.00;71.50;;;;;;5029390;28;20045;-78
2023/01/17 20:07:17;;;;;;;12.20;7.22;;;7.70;83.60;;;;;;5149372;22;20406;-72
2023/01/17 20:09:43;;;;;;;10.93;6.93;;;7.70;79.70;;;;;;5079996;28;20051;-70
2023/01/17 20:12:09;;;;;;;10.30;6.75;;;7.70;80.40;;;;;;5083292;28;20452;-72
2023/01/17 20:14:35;;;;;;;8.45;6.22;;;7.80;81.30;;;;;;5083629;28;20053;-71
2023/01/17 20:17:01;;;;;;;9.07;6.88;;;7.90;81.70;;;;;;5079720;28;20059;-72
2023/01/17 20:19:27;;;;;;;10.75;7.22;;;8.00;82.30;;;;;;5081613;28;20025;-72
2023/01/17 20:21:54;;;;;;;10.43;7.03;;;8.10;82.80;;;;;;5081002;28;20052;-73
2023/01/17 20:24:20;;;;;;;10.40;6.90;;;8.20;82.80;;;;;;5078166;28;20078;-73
2023/01/17 20:26:45;;;;;;;10.20;6.80;;;8.20;82.70;;;;;;5079755;28;20028;-73
2023/01/17 20:29:16;;;;;;;11.98;7.95;;;8.30;82.60;;;;;;5078101;28;20029;-72
2023/01/17 20:31:43;;;;;;;10.63;6.88;;;8.40;82.60;;;;;;5086207;28;20496;-72
2023/01/17 20:34:11;;;;;;;8.60;6.43;;;8.40;82.60;;;;;;5087280;28;20466;-70
2023/01/17 20:36:38;;;;;;;9.15;6.88;;;8.50;82.90;;;;;;5081111;28;20029;-73
2023/01/17 20:39:06;;;;;;;8.20;6.50;;;8.60;82.60;;;;;;5070546;28;20051;-71
2023/01/17 20:41:34;;;;;;;9.20;6.35;;;8.60;82.30;;;;;;5078799;28;20016;-73
2023/01/17 20:44:01;;;;;;;9.30;6.85;;;8.70;82.00;;;;;;5083026;28;20032;-71
2023/01/17 20:46:34;;;;;;;8.02;6.38;;;8.70;81.80;;;;;;5088600;28;20751;-73
2023/01/17 20:49:03;;;;;;;10.50;7.45;;;8.70;81.70;;;;;;5089163;28;20032;-73
2023/01/17 20:51:29;;;;;;;10.10;6.95;;;8.70;81.50;;;;;;5088777;28;20450;-73
2023/01/17 20:54:01;;;;;;;9.88;7.07;;;8.70;81.40;;;;;;5090138;28;20103;-75
2023/01/17 20:56:28;;;;;;;8.35;6.60;;;8.70;81.30;;;;;;5089305;28;20041;-73
2023/01/17 20:58:55;;;;;;;9.60;6.65;;;8.70;81.20;;;;;;5089618;28;20032;-75
2023/01/17 21:01:21;;;;;;;9.52;6.35;;;8.80;81.10;;;;;;5078872;28;20478;-72
2023/01/17 21:03:50;;;;;;;9.20;7.07;;;8.70;81.00;;;;;;5069239;28;20036;-72
2023/01/17 21:06:17;;;;;;;8.55;6.90;;;8.80;81.00;;;;;;5066171;28;20900;-71
2023/01/17 21:08:44;;;;;;;8.13;6.50;;;8.70;80.80;;;;;;5048225;28;20064;-73
2023/01/17 21:11:14;;;;;;;9.63;6.55;;;8.80;80.70;;;;;;5049313;28;20038;-71
2023/01/17 21:13:39;;;;;;;9.10;6.63;;;8.80;80.70;;;;;;5049248;28;20029;-72
2023/01/17 21:16:07;;;;;;;8.85;6.57;;;8.80;80.70;;;;;;5049633;28;20029;-73
2023/01/17 21:18:32;;;;;;;7.75;6.25;;;8.80;80.60;;;;;;5036751;28;20052;-72
2023/01/17 21:21:12;;;;;;;9.18;6.68;;;8.80;80.50;;;;;;5036098;28;20029;-72
2023/01/17 21:23:39;;;;;;;9.23;6.38;;;8.80;80.90;;;;;;5034886;28;20150;-71
2023/01/17 21:26:07;;;;;;;7.95;6.30;;;8.80;80.30;;;;;;5035469;28;20037;-72
2023/01/17 21:28:35;;;;;;;9.32;6.72;;;8.80;80.20;;;;;;5036006;28;20040;-71
2023/01/17 21:31:18;;;;;;;8.75;6.43;;;8.80;80.10;;;;;;5035976;28;20036;-72
2023/01/17 21:33:44;;;;;;;7.97;6.30;;;8.80;80.10;;;;;;5036179;28;20410;-69
2023/01/17 21:36:10;;;;;;;8.80;6.45;;;8.80;80.00;;;;;;5035491;28;20033;-72
2023/01/17 21:38:35;;;;;;;9.88;7.00;;;8.80;79.90;;;;;;5035671;28;20080;-71
2023/01/17 21:41:02;;;;;;;8.20;6.13;;;8.80;79.90;;;;;;5035768;28;20113;-69
2023/01/17 21:43:27;;;;;;;9.57;6.45;;;8.80;79.80;;;;;;5035577;28;20021;-72
2023/01/17 21:45:53;;;;;;;8.27;6.40;;;8.80;79.70;;;;;;5035444;28;20041;-73
2023/01/17 21:48:19;;;;;;;8.52;6.10;;;8.80;79.70;;;;;;5035270;28;20029;-70
2023/01/17 21:50:46;;;;;;;8.57;6.45;;;8.80;79.70;;;;;;5035497;28;20387;-72
2023/01/17 21:53:12;;;;;;;7.93;6.65;;;8.80;79.60;;;;;;5035392;28;20121;-70
2023/01/17 22:01:16;;;;;;;8.82;7.18;;;8.80;79.40;;;;;;5035729;28;20068;-72
2023/01/17 22:03:46;;;;;;;8.55;6.93;;;8.80;79.30;;;;;;5035433;28;20022;-72
2023/01/17 22:06:11;;;;;;;7.85;6.22;;;8.80;80.80;;;;;;5048351;28;20045;-72
2023/01/17 22:08:37;;;;;;;7.10;5.90;;;9.00;80.90;;;;;;5054439;28;20478;-73
2023/01/17 22:11:11;;;;;;;7.78;6.28;;;9.10;80.50;;;;;;5054167;28;20036;-73
2023/01/17 22:13:38;;;;;;;7.25;6.05;;;9.20;80.00;;;;;;5054119;28;20024;-72
2023/01/17 22:16:07;;;;;;;6.13;5.40;;;9.20;79.70;;;;;;5048492;28;20096;-72
2023/01/17 22:18:37;;;;;;;7.53;5.97;;;9.30;79.40;;;;;;5054020;28;20049;-73
2023/01/17 22:21:13;;;;;;;7.15;5.57;;;9.30;79.20;;;;;;5054201;28;20028;-72
2023/01/17 22:23:43;;;;;;;6.65;5.68;;;9.20;79.10;;;;;;5053866;28;20031;-72
2023/01/17 22:26:10;;;;;;;7.85;6.53;;;9.20;79.00;;;;;;5049535;28;20033;-72
2023/01/17 22:28:37;;;;;;;8.95;6.43;;;9.20;79.00;;;;;;5051746;28;20029;-73
2023/01/17 22:31:11;;;;;;;7.25;6.10;;;9.20;79.00;;;;;;5051895;28;20029;-72
2023/01/17 22:33:38;;;;;;;;;;;9.20;79.00;;;;;;5054344;28;20021;-72
2023/01/17 22:36:04;;;;;;;6.63;5.32;;;9.10;78.90;;;;;;5053390;28;20381;-72
2023/01/17 22:38:31;;;;;;;7.20;5.90;;;9.10;78.80;;;;;;5053502;28;20104;-72
2023/01/17 22:41:06;;;;;;;7.55;6.07;;;9.10;78.80;;;;;;5054470;28;20024;-72
2023/01/17 22:43:37;;;;;;;7.50;5.72;;;9.10;78.80;;;;;;5055031;28;20032;-72
2023/01/17 22:46:05;;;;;;;6.60;5.50;;;9.10;78.80;;;;;;5055002;28;20044;-72
2023/01/17 22:48:32;;;;;;;7.47;6.10;;;9.10;78.80;;;;;;5054899;28;20505;-73
2023/01/17 22:50:58;;;;;;;8.13;6.07;;;9.10;78.80;;;;;;5053687;28;20032;-72
2023/01/17 22:53:25;;;;;;;8.40;5.80;;;9.00;78.80;;;;;;5054647;28;20029;-72
2023/01/17 22:56:21;;;;;;;6.88;5.85;;;9.00;78.70;;;;;;5054687;28;20087;-74
2023/01/17 22:58:47;;;;;;;7.32;5.68;;;9.00;78.70;;;;;;5053965;28;20037;-73
2023/01/17 23:01:17;;;;;;;7.70;5.93;;;9.00;78.60;;;;;;5054643;28;20374;-73
2023/01/17 23:03:44;;;;;;;8.15;5.72;;;9.00;78.60;;;;;;5054626;28;20033;-73
2023/01/17 23:06:18;;;;;;;7.18;5.55;;;9.00;78.60;;;;;;5054077;28;20120;-73
2023/01/17 23:08:46;;;;;;;6.95;5.50;;;9.00;78.60;;;;;;5055268;28;20060;-73
2023/01/17 23:11:38;;;;;;;7.32;6.10;;;9.00;78.50;;;;;;5054173;28;20036;-73
2023/01/17 23:14:26;;;;;;;6.60;5.57;;;9.00;78.50;;;;;;5054328;28;20025;-73
2023/01/17 23:19:46;;;;;;;7.07;5.60;;;9.00;78.40;;;;;;5054379;28;20113;-74
2023/01/17 23:22:18;;;;;;;6.88;5.60;;;8.90;78.30;;;;;;5053039;28;20158;-74
2023/01/17 23:24:49;;;;;;;6.35;5.22;;;9.00;78.30;;;;;;5054239;28;20506;-73
2023/01/17 23:30:14;;;;;;;6.30;5.22;;;9.00;78.30;;;;;;5054085;28;20055;-73
2023/01/17 23:32:46;;;;;;;6.53;5.40;;;9.00;78.30;;;;;;5054042;28;20021;-73
2023/01/17 23:35:13;;;;;;;6.95;5.50;;;8.90;78.20;;;;;;5053875;28;20087;-73
2023/01/17 23:40:23;;;;;;;7.53;5.70;;;8.90;78.20;;;;;;5053747;28;20040;-73
2023/01/17 23:45:37;;;;;;;6.05;5.05;;;8.90;78.10;;;;;;5053869;28;20083;-73
2023/01/17 23:48:08;;;;;;;7.22;5.78;;;8.90;78.00;;;;;;5053953;28;20033;-73
2023/01/17 23:50:38;;;;;;;6.57;5.68;;;8.90;78.00;;;;;;5054027;28;20021;-73
2023/01/17 23:53:06;;;;;;;6.60;5.30;;;8.90;78.00;;;;;;5053987;28;20021;-71
2023/01/17 23:55:37;;;;;;;6.00;4.90;;;8.90;78.00;;;;;;5053703;28;20482;-71
2023/01/17 23:58:07;;;;;;;7.15;5.70;;;8.90;77.90;;;;;;5053502;28;20028;-71
